createdAt,value
2022-11-07T00:00:09.389Z,27.80
2022-11-07T00:02:58.949Z,29.98
2022-11-07T00:05:26.894Z,29.77
2022-11-07T00:07:54.882Z,29.00
2022-11-07T00:10:22.609Z,29.60
2022-11-07T00:12:51.107Z,30.70
2022-11-07T00:15:19.257Z,28.25
2022-11-07T00:17:47.205Z,28.10
2022-11-07T00:20:15.106Z,30.37
2022-11-07T00:22:43.242Z,29.20
2022-11-07T00:25:11.096Z,29.33
2022-11-07T00:27:39.260Z,27.27
2022-11-07T00:30:07.526Z,25.75
2022-11-07T00:32:36.065Z,27.53
2022-11-07T00:35:03.987Z,25.50
2022-11-07T00:37:32.143Z,26.63
2022-11-07T00:39:59.887Z,25.85
2022-11-07T00:42:27.939Z,25.50
2022-11-07T00:44:55.982Z,25.70
2022-11-07T00:47:23.961Z,27.40
2022-11-07T00:49:52.059Z,28.20
2022-11-07T00:52:20.053Z,26.52
2022-11-07T00:54:47.767Z,26.63
2022-11-07T00:57:15.903Z,26.13
2022-11-07T00:59:43.599Z,27.52
2022-11-07T01:02:12.162Z,27.45
2022-11-07T01:04:58.500Z,27.50
2022-11-07T01:07:26.580Z,26.40
2022-11-07T01:09:54.307Z,26.13
2022-11-07T01:12:22.558Z,25.63
2022-11-07T01:14:50.601Z,28.60
2022-11-07T01:17:18.728Z,26.88
2022-11-07T01:19:46.503Z,26.33
2022-11-07T01:22:14.766Z,28.33
2022-11-07T01:24:42.472Z,27.38
2022-11-07T01:27:10.698Z,26.75
2022-11-07T01:29:38.496Z,27.08
2022-11-07T01:32:06.639Z,24.70
2022-11-07T01:34:34.392Z,28.57
2022-11-07T01:37:11.223Z,28.08
2022-11-07T01:39:45.128Z,25.95
2022-11-07T01:42:15.897Z,26.80
2022-11-07T01:44:58.691Z,28.67
2022-11-07T01:47:36.965Z,25.23
2022-11-07T01:50:07.864Z,25.83
2022-11-07T01:52:39.837Z,24.98
2022-11-07T01:55:13.659Z,26.67
2022-11-07T01:57:47.969Z,28.88
2022-11-07T02:00:18.808Z,28.23
2022-11-07T02:02:49.889Z,26.38
2022-11-07T02:05:25.505Z,26.00
2022-11-07T02:07:54.290Z,26.23
2022-11-07T02:10:22.285Z,24.40
2022-11-07T02:12:51.686Z,26.43
2022-11-07T02:15:19.606Z,23.27
2022-11-07T02:17:48.279Z,26.70
2022-11-07T02:20:16.530Z,23.58
2022-11-07T02:22:54.318Z,24.58
2022-11-07T02:25:22.243Z,26.00
2022-11-07T02:27:59.881Z,26.23
2022-11-07T02:30:34.199Z,27.98
2022-11-07T02:33:03.445Z,26.67
2022-11-07T02:35:40.399Z,24.20
2022-11-07T02:38:13.843Z,25.70
2022-11-07T02:40:43.800Z,36.28
2022-11-07T02:43:13.730Z,32.08
2022-11-07T02:45:44.721Z,29.08
2022-11-07T02:48:12.846Z,34.30
2022-11-07T02:50:41.582Z,27.30
2022-11-07T02:53:10.061Z,26.42
2022-11-07T02:55:37.927Z,26.35
2022-11-07T02:58:06.070Z,25.02
2022-11-07T03:00:33.734Z,25.58
2022-11-07T03:03:01.932Z,24.43
2022-11-07T03:05:29.554Z,33.83
2022-11-07T03:07:57.778Z,33.85
2022-11-07T03:10:25.490Z,32.92
2022-11-07T03:12:53.583Z,31.27
2022-11-07T03:15:21.293Z,27.80
2022-11-07T03:17:49.385Z,25.40
2022-11-07T03:20:17.849Z,25.45
2022-11-07T03:22:47.886Z,30.73
2022-11-07T03:25:15.538Z,27.85
2022-11-07T03:27:50.990Z,32.97
2022-11-07T03:30:18.937Z,31.35
2022-11-07T03:32:46.926Z,28.73
2022-11-07T03:35:14.964Z,24.00
2022-11-07T03:37:45.967Z,24.23
2022-11-07T03:40:15.052Z,25.40
2022-11-07T03:42:44.988Z,24.05
2022-11-07T03:45:15.326Z,25.20
2022-11-07T03:47:45.096Z,22.85
2022-11-07T03:50:19.291Z,25.30
2022-11-07T03:52:48.552Z,23.80
2022-11-07T03:55:18.495Z,24.48
2022-11-07T03:57:47.410Z,25.98
2022-11-07T04:00:16.103Z,28.23
2022-11-07T04:02:44.617Z,28.90
2022-11-07T04:05:12.791Z,25.80
2022-11-07T04:07:40.963Z,25.65
2022-11-07T04:10:08.865Z,25.60
2022-11-07T04:12:56.179Z,26.42
2022-11-07T04:15:42.136Z,25.67
2022-11-07T04:18:10.318Z,28.23
2022-11-07T04:20:37.937Z,26.50
2022-11-07T04:23:06.099Z,26.10
2022-11-07T04:25:52.457Z,24.92
2022-11-07T04:28:21.834Z,28.42
2022-11-07T04:30:49.512Z,23.87
2022-11-07T04:33:18.261Z,39.20
2022-11-07T04:35:46.076Z,40.10
2022-11-07T04:38:14.839Z,39.00
2022-11-07T04:40:43.250Z,49.28
2022-11-07T04:43:11.714Z,29.27
2022-11-07T04:45:39.864Z,35.17
2022-11-07T04:48:10.418Z,29.73
2022-11-07T04:50:38.526Z,47.15
2022-11-07T04:53:07.202Z,39.28
2022-11-07T04:55:35.649Z,40.97
2022-11-07T04:58:04.977Z,43.75
2022-11-07T05:00:34.995Z,51.90
2022-11-07T05:03:04.283Z,42.13
2022-11-07T05:05:32.162Z,27.30
2022-11-07T05:08:00.869Z,24.60
2022-11-07T05:10:29.635Z,24.60
2022-11-07T05:12:58.207Z,31.92
2022-11-07T05:15:25.859Z,26.67
2022-11-07T05:17:54.116Z,27.25
2022-11-07T05:20:36.535Z,29.43
2022-11-07T05:23:20.961Z,27.10
2022-11-07T05:25:53.766Z,40.30
2022-11-07T05:28:33.561Z,34.80
2022-11-07T05:31:06.407Z,38.75
2022-11-07T05:33:35.392Z,30.90
2022-11-07T05:36:17.288Z,33.80
2022-11-07T05:38:47.617Z,44.15
2022-11-07T05:41:17.008Z,58.03
2022-11-07T05:43:45.646Z,44.30
2022-11-07T05:46:14.223Z,39.83
2022-11-07T05:48:42.403Z,29.02
2022-11-07T05:51:10.268Z,45.65
2022-11-07T05:53:38.426Z,28.02
2022-11-07T05:56:07.362Z,23.42
2022-11-07T05:58:35.440Z,31.17
2022-11-07T06:01:04.727Z,33.75
2022-11-07T06:03:33.760Z,35.13
2022-11-07T06:06:02.291Z,27.77
2022-11-07T06:08:30.380Z,30.77
2022-11-07T06:10:58.170Z,25.77
2022-11-07T06:13:26.172Z,24.02
2022-11-07T06:15:53.986Z,28.98
2022-11-07T06:18:22.082Z,26.83
2022-11-07T06:20:50.503Z,25.30
2022-11-07T06:23:19.089Z,24.33
2022-11-07T06:25:47.077Z,24.30
2022-11-07T06:28:15.678Z,23.35
2022-11-07T06:30:44.049Z,24.67
2022-11-07T06:33:16.506Z,26.15
2022-11-07T06:35:45.877Z,31.23
2022-11-07T06:38:14.840Z,27.60
2022-11-07T06:40:43.843Z,31.38
2022-11-07T06:43:20.571Z,28.33
2022-11-07T06:45:48.775Z,25.23
2022-11-07T06:48:17.476Z,25.40
2022-11-07T06:50:46.235Z,26.25
2022-11-07T06:53:15.264Z,26.05
2022-11-07T06:55:43.442Z,30.48
2022-11-07T06:58:11.904Z,29.00
2022-11-07T07:00:39.724Z,24.37
2022-11-07T07:03:07.835Z,26.27
2022-11-07T07:05:36.661Z,26.20
2022-11-07T07:08:06.991Z,29.42
2022-11-07T07:10:43.097Z,27.70
2022-11-07T07:13:13.173Z,24.07
2022-11-07T07:15:51.119Z,24.27
2022-11-07T07:18:24.560Z,21.77
2022-11-07T07:20:53.188Z,21.60
2022-11-07T07:23:24.350Z,20.98
2022-11-07T07:25:55.303Z,22.00
2022-11-07T07:28:25.015Z,22.95
2022-11-07T07:30:53.816Z,20.65
2022-11-07T07:33:22.682Z,21.52
2022-11-07T07:35:50.368Z,21.48
2022-11-07T07:38:19.106Z,20.33
2022-11-07T07:40:46.914Z,21.55
2022-11-07T07:43:16.642Z,21.17
2022-11-07T07:45:44.862Z,21.20
2022-11-07T07:48:13.757Z,20.50
2022-11-07T07:50:42.830Z,21.80
2022-11-07T07:53:12.396Z,21.75
2022-11-07T07:55:41.487Z,21.60
2022-11-07T07:58:11.529Z,21.27
2022-11-07T08:00:40.768Z,22.20
2022-11-07T08:03:13.605Z,20.70
2022-11-07T08:05:41.590Z,21.55
2022-11-07T08:08:09.946Z,22.15
2022-11-07T08:10:42.881Z,23.67
2022-11-07T08:13:11.650Z,21.52
2022-11-07T08:15:40.799Z,20.97
2022-11-07T08:18:11.954Z,20.63
2022-11-07T08:20:39.778Z,21.60
2022-11-07T08:23:16.185Z,22.20
2022-11-07T08:25:55.542Z,23.77
2022-11-07T08:28:27.084Z,21.53
2022-11-07T08:30:56.201Z,24.70
2022-11-07T08:33:24.496Z,28.30
2022-11-07T08:35:55.611Z,31.85
2022-11-07T08:38:24.990Z,36.85
2022-11-07T08:40:54.082Z,33.17
2022-11-07T08:43:23.545Z,29.35
2022-11-07T08:45:53.411Z,28.17
2022-11-07T08:48:24.129Z,23.00
2022-11-07T08:50:57.248Z,22.25
2022-11-07T08:53:29.308Z,20.73
2022-11-07T08:56:10.766Z,21.77
2022-11-07T08:58:39.139Z,20.75
2022-11-07T09:01:08.693Z,20.63
2022-11-07T09:03:55.036Z,21.55
2022-11-07T09:06:27.693Z,21.03
2022-11-07T09:08:58.295Z,19.63
2022-11-07T09:11:27.098Z,20.40
2022-11-07T09:13:56.101Z,18.65
2022-11-07T09:16:24.542Z,19.27
2022-11-07T09:18:52.918Z,18.77
2022-11-07T09:21:22.670Z,17.77
2022-11-07T09:23:52.076Z,17.40
2022-11-07T09:26:20.041Z,17.70
2022-11-07T09:28:52.162Z,17.52
2022-11-07T09:31:22.379Z,18.60
2022-11-07T09:33:50.418Z,19.40
2022-11-07T09:36:18.063Z,17.63
2022-11-07T09:38:46.154Z,18.60
2022-11-07T09:41:25.358Z,17.75
2022-11-07T09:43:53.653Z,17.70
2022-11-07T09:46:58.338Z,18.55
2022-11-07T09:49:46.332Z,18.85
2022-11-07T09:52:24.552Z,19.52
2022-11-07T09:55:00.737Z,19.50
2022-11-07T09:57:32.002Z,19.83
2022-11-07T10:00:15.263Z,21.48
2022-11-07T10:02:46.128Z,20.33
2022-11-07T10:05:34.669Z,19.52
2022-11-07T10:08:12.081Z,18.90
2022-11-07T10:10:55.314Z,18.77
2022-11-07T10:13:44.107Z,18.33
2022-11-07T10:16:26.123Z,19.48
2022-11-07T10:19:04.247Z,18.58
2022-11-07T10:21:39.281Z,18.52
2022-11-07T10:24:41.676Z,18.27
2022-11-07T10:27:12.144Z,17.50
2022-11-07T10:29:52.767Z,16.67
2022-11-07T10:32:40.315Z,18.08
2022-11-07T10:35:34.120Z,16.77
2022-11-07T10:38:14.707Z,17.23
2022-11-07T10:40:44.025Z,16.17
2022-11-07T10:43:36.795Z,18.17
2022-11-07T10:46:10.658Z,15.40
2022-11-07T10:48:38.852Z,15.20
2022-11-07T10:51:06.433Z,15.57
2022-11-07T10:53:43.577Z,16.08
2022-11-07T10:56:14.105Z,16.33
2022-11-07T10:58:46.550Z,16.13
2022-11-07T11:01:14.459Z,17.17
2022-11-07T11:03:45.392Z,16.63
2022-11-07T11:06:23.380Z,16.67
2022-11-07T11:08:52.853Z,17.30
2022-11-07T11:11:35.083Z,17.25
2022-11-07T11:14:03.284Z,22.65
2022-11-07T11:16:34.583Z,43.70
2022-11-07T11:19:03.778Z,42.95
2022-11-07T11:21:43.727Z,30.33
2022-11-07T11:24:31.090Z,43.63
2022-11-07T11:27:15.850Z,23.13
2022-11-07T11:29:54.817Z,41.03
2022-11-07T11:32:26.241Z,35.67
2022-11-07T11:35:24.676Z,41.28
2022-11-07T11:37:59.488Z,35.92
2022-11-07T11:40:33.000Z,28.38
2022-11-07T11:43:24.180Z,32.43
2022-11-07T11:46:05.794Z,80.95
2022-11-07T11:48:39.833Z,55.50
2022-11-07T11:51:27.789Z,38.35
2022-11-07T11:53:55.632Z,32.33
2022-11-07T11:56:33.393Z,21.17
2022-11-07T12:00:16.715Z,21.27
2022-11-07T12:03:12.164Z,18.25
2022-11-07T12:05:46.166Z,18.38
2022-11-07T12:08:39.058Z,18.05
2022-11-07T12:11:20.890Z,17.57
2022-11-07T12:14:23.522Z,15.65
2022-11-07T12:17:10.944Z,15.70
2022-11-07T12:19:51.052Z,17.65
2022-11-07T12:22:40.563Z,21.27
2022-11-07T12:25:35.857Z,19.07
2022-11-07T12:28:28.678Z,19.55
2022-11-07T12:31:00.221Z,22.65
2022-11-07T12:33:34.268Z,20.83
2022-11-07T12:36:25.011Z,21.30
2022-11-07T12:39:02.270Z,22.47
2022-11-07T12:41:45.684Z,22.15
2022-11-07T12:44:25.325Z,21.73
2022-11-07T12:46:56.758Z,21.48
2022-11-07T12:49:36.313Z,21.65
2022-11-07T12:52:11.192Z,21.40
2022-11-07T12:54:41.951Z,24.95
2022-11-07T12:57:20.554Z,28.25
2022-11-07T12:59:54.811Z,31.73
2022-11-07T13:02:34.016Z,27.70
2022-11-07T13:05:18.592Z,31.30
2022-11-07T13:07:54.545Z,27.25
2022-11-07T13:10:36.696Z,26.63
2022-11-07T13:13:13.443Z,25.92
2022-11-07T13:16:08.812Z,27.58
2022-11-07T13:18:29.837Z,25.20
2022-11-07T13:21:05.976Z,24.98
2022-11-07T13:23:34.447Z,27.02
2022-11-07T13:26:20.284Z,27.05
2022-11-07T13:29:00.853Z,27.95
2022-11-07T13:31:38.834Z,27.73
2022-11-07T13:34:11.507Z,27.90
2022-11-07T13:36:40.197Z,27.92
2022-11-07T13:39:12.457Z,27.27
2022-11-07T13:44:40.744Z,25.30
2022-11-07T13:47:18.761Z,25.60
2022-11-07T13:49:49.561Z,33.03
2022-11-07T13:52:30.866Z,46.92
2022-11-07T13:55:22.780Z,49.03
2022-11-07T13:58:10.685Z,52.77
2022-11-07T14:00:40.012Z,44.53
2022-11-07T14:03:51.814Z,43.00
2022-11-07T14:06:36.002Z,36.92
2022-11-07T14:09:06.522Z,30.13
2022-11-07T14:11:37.870Z,26.73
2022-11-07T14:14:09.309Z,30.38
2022-11-07T14:16:41.653Z,23.48
2022-11-07T14:19:29.738Z,29.33
2022-11-07T14:22:02.132Z,26.70
2022-11-07T14:24:34.748Z,27.53
2022-11-07T14:27:24.990Z,27.25
2022-11-07T14:30:02.475Z,26.23
2022-11-07T14:33:03.177Z,26.25
2022-11-07T14:35:37.669Z,27.80
2022-11-07T14:38:16.085Z,29.37
2022-11-07T14:40:45.670Z,28.27
2022-11-07T14:43:18.781Z,29.13
2022-11-07T14:46:11.284Z,32.60
2022-11-07T14:48:43.064Z,29.27
2022-11-07T14:51:16.964Z,27.50
2022-11-07T14:53:57.628Z,29.50
2022-11-07T14:56:56.601Z,35.70
2022-11-07T14:59:30.759Z,32.08
2022-11-07T15:05:26.549Z,28.57
2022-11-07T15:07:59.966Z,28.67
2022-11-07T15:10:39.256Z,29.60
2022-11-07T15:13:24.725Z,33.85
2022-11-07T15:16:08.640Z,30.73
2022-11-07T15:18:41.831Z,29.07
2022-11-07T15:21:33.540Z,27.33
2022-11-07T15:24:32.422Z,30.63
2022-11-07T15:27:03.646Z,28.23
2022-11-07T15:29:34.157Z,27.40
2022-11-07T15:32:18.171Z,29.23
2022-11-07T15:35:03.738Z,31.23
2022-11-07T15:37:34.504Z,34.05
2022-11-07T15:40:02.263Z,33.30
2022-11-07T15:42:30.358Z,34.60
2022-11-07T15:44:58.203Z,43.73
2022-11-07T15:47:26.364Z,35.55
2022-11-07T15:49:54.154Z,35.35
2022-11-07T15:52:22.487Z,35.80
2022-11-07T15:54:50.199Z,33.97
2022-11-07T15:57:19.189Z,35.73
2022-11-07T15:59:47.082Z,41.58
2022-11-07T16:02:17.282Z,36.10
2022-11-07T16:04:45.203Z,38.38
2022-11-07T16:07:18.128Z,40.13
2022-11-07T16:09:48.980Z,56.07
2022-11-07T16:12:19.160Z,89.65
2022-11-07T16:14:47.365Z,87.85
2022-11-07T16:17:16.930Z,74.32
2022-11-07T16:19:45.389Z,63.42
2022-11-07T16:22:14.937Z,59.73
2022-11-07T16:24:43.121Z,61.75
2022-11-07T16:27:17.579Z,62.75
2022-11-07T16:29:45.701Z,73.45
2022-11-07T16:32:18.078Z,75.50
2022-11-07T16:34:47.472Z,74.20
2022-11-07T16:37:15.519Z,76.95
2022-11-07T16:39:43.331Z,85.15
2022-11-07T16:42:16.576Z,79.35
2022-11-07T16:44:44.613Z,102.47
2022-11-07T16:47:15.418Z,84.83
2022-11-07T16:49:44.219Z,63.22
2022-11-07T16:52:17.573Z,65.82
2022-11-07T16:54:46.390Z,55.75
2022-11-07T16:57:17.471Z,58.45
2022-11-07T16:59:46.582Z,79.00
2022-11-07T17:02:21.187Z,90.65
2022-11-07T17:04:50.959Z,93.03
2022-11-07T17:07:21.876Z,86.13
2022-11-07T17:09:50.457Z,88.45
2022-11-07T17:12:22.916Z,71.57
2022-11-07T17:14:51.337Z,63.85
2022-11-07T17:17:19.596Z,58.55
2022-11-07T17:19:47.574Z,53.75
2022-11-07T17:22:17.065Z,46.67
2022-11-07T17:24:45.462Z,43.93
2022-11-07T17:27:24.120Z,45.85
2022-11-07T17:29:53.340Z,46.60
2022-11-07T17:32:21.692Z,47.38
2022-11-07T17:35:04.741Z,46.10
2022-11-07T17:37:38.328Z,43.27
2022-11-07T17:40:06.630Z,37.90
2022-11-07T17:42:38.042Z,41.67
2022-11-07T17:45:07.292Z,42.10
2022-11-07T17:47:35.296Z,48.35
2022-11-07T17:50:03.716Z,45.57
2022-11-07T17:52:31.999Z,42.38
2022-11-07T17:54:59.883Z,41.75
2022-11-07T17:57:28.246Z,40.65
2022-11-07T17:59:55.991Z,41.00
2022-11-07T18:02:24.082Z,37.77
2022-11-07T18:04:52.234Z,42.05
2022-11-07T18:07:20.382Z,36.47
2022-11-07T18:09:49.737Z,37.20
2022-11-07T18:12:17.737Z,35.95
2022-11-07T18:14:45.567Z,39.73
2022-11-07T18:17:13.591Z,39.67
2022-11-07T18:19:41.333Z,39.28
2022-11-07T18:22:09.483Z,36.38
2022-11-07T18:24:37.286Z,35.58
2022-11-07T18:27:10.729Z,37.83
2022-11-07T18:29:47.085Z,37.00
2022-11-07T18:32:18.046Z,36.55
2022-11-07T18:34:45.808Z,36.10
2022-11-07T18:37:13.996Z,36.58
2022-11-07T18:39:41.842Z,35.13
2022-11-07T18:42:09.843Z,34.70
2022-11-07T18:44:37.767Z,34.53
2022-11-07T18:47:05.886Z,36.85
2022-11-07T18:49:33.765Z,40.30
2022-11-07T18:52:01.989Z,41.10
2022-11-07T18:54:30.394Z,69.10
2022-11-07T18:56:58.542Z,72.18
2022-11-07T18:59:27.395Z,52.80
2022-11-07T19:01:58.302Z,45.47
2022-11-07T19:04:26.694Z,47.00
2022-11-07T19:06:57.910Z,41.88
2022-11-07T19:09:32.364Z,38.38
2022-11-07T19:12:02.017Z,52.10
2022-11-07T19:14:30.806Z,50.30
2022-11-07T19:17:01.454Z,43.40
2022-11-07T19:19:32.574Z,42.00
2022-11-07T19:22:01.728Z,40.92
2022-11-07T19:24:29.962Z,40.10
2022-11-07T19:26:59.295Z,38.58
2022-11-07T19:29:27.395Z,32.63
2022-11-07T19:31:57.106Z,32.50
2022-11-07T19:34:26.410Z,30.98
2022-11-07T19:36:54.954Z,34.42
2022-11-07T19:39:23.280Z,35.10
2022-11-07T19:41:51.505Z,33.87
2022-11-07T19:44:19.593Z,34.78
2022-11-07T19:46:48.264Z,35.28
2022-11-07T19:49:16.193Z,35.05
2022-11-07T19:51:44.349Z,34.22
2022-11-07T19:54:12.169Z,35.23
2022-11-07T19:56:41.503Z,37.20
2022-11-07T19:59:10.275Z,35.00
2022-11-07T20:01:39.783Z,35.67
2022-11-07T20:04:09.078Z,37.70
2022-11-07T20:06:40.388Z,35.93
2022-11-07T20:09:10.282Z,33.40
2022-11-07T20:11:38.403Z,34.83
2022-11-07T20:14:08.434Z,34.42
2022-11-07T20:16:39.410Z,36.20
2022-11-07T20:19:07.189Z,35.80
2022-11-07T20:21:35.333Z,36.17
2022-11-07T20:24:05.700Z,41.17
2022-11-07T20:26:34.251Z,42.72
2022-11-07T20:29:03.254Z,41.75
2022-11-07T20:31:34.796Z,42.63
2022-11-07T20:34:06.363Z,42.05
2022-11-07T20:36:35.082Z,42.33
2022-11-07T20:39:03.964Z,42.42
2022-11-07T20:41:33.457Z,42.33
2022-11-07T20:44:06.760Z,40.23
2022-11-07T20:46:36.933Z,38.85
2022-11-07T20:49:07.220Z,40.13
2022-11-07T20:51:35.984Z,40.25
2022-11-07T20:54:03.852Z,39.03
2022-11-07T20:56:32.402Z,39.00
2022-11-07T20:59:00.994Z,36.58
2022-11-07T21:01:38.464Z,37.30
2022-11-07T21:04:09.122Z,37.58
2022-11-07T21:06:37.711Z,40.33
2022-11-07T21:09:06.283Z,38.50
2022-11-07T21:11:36.806Z,39.45
2022-11-07T21:14:06.207Z,38.70
2022-11-07T21:16:35.802Z,35.92
2022-11-07T21:19:06.492Z,38.40
2022-11-07T21:21:36.772Z,37.67
2022-11-07T21:24:05.561Z,38.78
2022-11-07T21:26:36.771Z,36.95
2022-11-07T21:29:07.670Z,38.50
2022-11-07T21:31:38.288Z,40.00
2022-11-07T21:34:09.909Z,38.13
2022-11-07T21:36:38.882Z,38.28
2022-11-07T21:39:07.954Z,40.78
2022-11-07T21:41:36.132Z,40.13
2022-11-07T21:44:04.693Z,39.85
2022-11-07T21:46:34.692Z,39.65
2022-11-07T21:49:04.658Z,37.40
2022-11-07T21:51:34.909Z,37.35
2022-11-07T21:54:04.071Z,37.50
2022-11-07T21:56:34.813Z,39.75
2022-11-07T21:59:06.949Z,40.92
2022-11-07T22:01:36.746Z,48.15
2022-11-07T22:04:08.604Z,49.92
2022-11-07T22:06:40.601Z,53.40
2022-11-07T22:09:10.292Z,47.78
2022-11-07T22:11:39.212Z,46.05
2022-11-07T22:14:07.015Z,42.83
2022-11-07T22:16:36.477Z,44.85
2022-11-07T22:19:07.223Z,44.10
2022-11-07T22:21:38.077Z,44.10
2022-11-07T22:24:05.877Z,40.67
2022-11-07T22:26:34.060Z,38.75
2022-11-07T22:29:03.967Z,35.58
2022-11-07T22:31:32.620Z,36.53
2022-11-07T22:34:01.106Z,33.10
2022-11-07T22:36:30.291Z,35.28
2022-11-07T22:38:58.637Z,33.55
2022-11-07T22:41:27.597Z,34.38
2022-11-07T22:43:56.535Z,36.03
2022-11-07T22:46:27.581Z,38.88
2022-11-07T22:48:55.676Z,38.80
2022-11-07T22:51:26.505Z,42.40
2022-11-07T22:54:06.117Z,46.25
2022-11-07T22:56:36.524Z,40.20
2022-11-07T22:59:05.544Z,51.38
2022-11-07T23:01:36.451Z,50.05
2022-11-07T23:04:05.072Z,51.22
2022-11-07T23:06:33.394Z,52.75
2022-11-07T23:09:01.629Z,49.30
2022-11-07T23:11:51.081Z,50.60
2022-11-07T23:14:21.122Z,41.67
2022-11-07T23:16:51.586Z,41.08
2022-11-07T23:19:22.481Z,37.90
2022-11-07T23:21:52.644Z,36.10
2022-11-07T23:24:23.759Z,34.20
2022-11-07T23:26:55.304Z,46.90
2022-11-07T23:29:24.451Z,44.65
2022-11-07T23:31:53.432Z,42.30
2022-11-07T23:34:22.405Z,39.00
2022-11-07T23:36:51.759Z,39.08
2022-11-07T23:39:21.886Z,36.60
2022-11-07T23:41:50.337Z,36.83
2022-11-07T23:44:17.995Z,37.72
2022-11-07T23:47:04.610Z,36.03
2022-11-07T23:49:50.656Z,36.95
2022-11-07T23:52:19.066Z,50.83
2022-11-07T23:55:05.265Z,51.53
2022-11-07T23:57:57.930Z,51.95
